sensor_id;sensor_type;location;lat;lon;timestamp;P1;durP1;ratioP1;P2;durP2;ratioP2
50393;SDS011;36308;46.312;25.288;2023-05-24T00:00:15;5.22;;;3.78;;
50393;SDS011;36308;46.312;25.288;2023-05-24T00:02:41;6.95;;;3.53;;
50393;SDS011;36308;46.312;25.288;2023-05-24T00:05:09;8.90;;;4.32;;
50393;SDS011;36308;46.312;25.288;2023-05-24T00:07:36;5.72;;;3.83;;
50393;SDS011;36308;46.312;25.288;2023-05-24T00:10:03;5.85;;;3.55;;
50393;SDS011;36308;46.312;25.288;2023-05-24T00:12:28;4.88;;;3.55;;
50393;SDS011;36308;46.312;25.288;2023-05-24T00:14:54;5.53;;;3.58;;
50393;SDS011;36308;46.312;25.288;2023-05-24T00:17:19;4.43;;;3.65;;
50393;SDS011;36308;46.312;25.288;2023-05-24T00:19:45;5.78;;;3.83;;
50393;SDS011;36308;46.312;25.288;2023-05-24T00:22:11;6.57;;;3.65;;
50393;SDS011;36308;46.312;25.288;2023-05-24T00:24:38;7.03;;;4.00;;
50393;SDS011;36308;46.312;25.288;2023-05-24T00:27:04;5.90;;;3.70;;
50393;SDS011;36308;46.312;25.288;2023-05-24T00:29:31;7.72;;;4.03;;
50393;SDS011;36308;46.312;25.288;2023-05-24T00:31:56;5.28;;;3.58;;
50393;SDS011;36308;46.312;25.288;2023-05-24T00:34:22;6.97;;;3.92;;
50393;SDS011;36308;46.312;25.288;2023-05-24T00:36:47;6.80;;;3.97;;
50393;SDS011;36308;46.312;25.288;2023-05-24T00:39:13;7.47;;;3.80;;
50393;SDS011;36308;46.312;25.288;2023-05-24T00:41:38;5.63;;;3.53;;
50393;SDS011;36308;46.312;25.288;2023-05-24T00:44:04;5.55;;;4.13;;
50393;SDS011;36308;46.312;25.288;2023-05-24T00:46:31;6.45;;;4.07;;
50393;SDS011;36308;46.312;25.288;2023-05-24T00:48:57;6.57;;;3.85;;
50393;SDS011;36308;46.312;25.288;2023-05-24T00:51:24;8.80;;;4.35;;
50393;SDS011;36308;46.312;25.288;2023-05-24T00:53:51;6.07;;;3.92;;
50393;SDS011;36308;46.312;25.288;2023-05-24T00:56:17;7.10;;;4.00;;
50393;SDS011;36308;46.312;25.288;2023-05-24T00:58:43;6.18;;;3.97;;
50393;SDS011;36308;46.312;25.288;2023-05-24T01:01:09;5.25;;;3.58;;
50393;SDS011;36308;46.312;25.288;2023-05-24T01:03:35;8.43;;;3.95;;
50393;SDS011;36308;46.312;25.288;2023-05-24T01:06:01;7.70;;;4.25;;
50393;SDS011;36308;46.312;25.288;2023-05-24T01:16:48;4.72;;;3.65;;
50393;SDS011;36308;46.312;25.288;2023-05-24T01:22:16;6.30;;;3.95;;
50393;SDS011;36308;46.312;25.288;2023-05-24T01:28:14;7.22;;;3.85;;
50393;SDS011;36308;46.312;25.288;2023-05-24T01:30:42;5.28;;;3.83;;
50393;SDS011;36308;46.312;25.288;2023-05-24T01:33:08;5.40;;;4.00;;
50393;SDS011;36308;46.312;25.288;2023-05-24T01:35:35;7.75;;;4.10;;
50393;SDS011;36308;46.312;25.288;2023-05-24T01:38:04;5.18;;;3.97;;
50393;SDS011;36308;46.312;25.288;2023-05-24T01:40:31;7.40;;;4.35;;
50393;SDS011;36308;46.312;25.288;2023-05-24T01:43:11;7.60;;;4.10;;
50393;SDS011;36308;46.312;25.288;2023-05-24T01:46:24;4.80;;;3.78;;
50393;SDS011;36308;46.312;25.288;2023-05-24T01:48:34;6.75;;;4.05;;
50393;SDS011;36308;46.312;25.288;2023-05-24T01:51:08;7.97;;;4.63;;
50393;SDS011;36308;46.312;25.288;2023-05-24T01:53:40;7.18;;;4.45;;
50393;SDS011;36308;46.312;25.288;2023-05-24T01:56:10;6.80;;;4.03;;
50393;SDS011;36308;46.312;25.288;2023-05-24T01:58:38;6.13;;;3.75;;
50393;SDS011;36308;46.312;25.288;2023-05-24T02:01:06;6.35;;;4.00;;
50393;SDS011;36308;46.312;25.288;2023-05-24T02:03:32;5.88;;;3.83;;
50393;SDS011;36308;46.312;25.288;2023-05-24T02:05:58;7.13;;;4.28;;
50393;SDS011;36308;46.312;25.288;2023-05-24T02:08:23;6.25;;;3.75;;
50393;SDS011;36308;46.312;25.288;2023-05-24T02:10:49;5.40;;;4.00;;
50393;SDS011;36308;46.312;25.288;2023-05-24T02:13:14;6.70;;;4.30;;
50393;SDS011;36308;46.312;25.288;2023-05-24T02:15:42;7.45;;;4.50;;
50393;SDS011;36308;46.312;25.288;2023-05-24T02:18:09;8.38;;;5.55;;
50393;SDS011;36308;46.312;25.288;2023-05-24T02:20:35;10.70;;;6.38;;
50393;SDS011;36308;46.312;25.288;2023-05-24T02:23:04;11.38;;;6.97;;
50393;SDS011;36308;46.312;25.288;2023-05-24T02:25:30;8.73;;;5.35;;
50393;SDS011;36308;46.312;25.288;2023-05-24T02:27:59;8.93;;;5.78;;
50393;SDS011;36308;46.312;25.288;2023-05-24T02:30:25;7.15;;;4.43;;
50393;SDS011;36308;46.312;25.288;2023-05-24T02:32:51;6.93;;;4.75;;
50393;SDS011;36308;46.312;25.288;2023-05-24T02:35:17;6.75;;;4.40;;
50393;SDS011;36308;46.312;25.288;2023-05-24T02:37:42;6.22;;;4.65;;
50393;SDS011;36308;46.312;25.288;2023-05-24T02:40:08;6.80;;;4.72;;
50393;SDS011;36308;46.312;25.288;2023-05-24T02:42:34;9.30;;;4.25;;
50393;SDS011;36308;46.312;25.288;2023-05-24T02:45:00;7.43;;;4.80;;
50393;SDS011;36308;46.312;25.288;2023-05-24T02:47:25;8.27;;;4.38;;
50393;SDS011;36308;46.312;25.288;2023-05-24T02:49:52;6.82;;;4.38;;
50393;SDS011;36308;46.312;25.288;2023-05-24T02:52:17;7.28;;;4.15;;
50393;SDS011;36308;46.312;25.288;2023-05-24T02:54:45;7.20;;;4.25;;
50393;SDS011;36308;46.312;25.288;2023-05-24T02:57:11;5.28;;;4.13;;
50393;SDS011;36308;46.312;25.288;2023-05-24T02:59:37;6.07;;;4.03;;
50393;SDS011;36308;46.312;25.288;2023-05-24T03:02:02;7.55;;;4.15;;
50393;SDS011;36308;46.312;25.288;2023-05-24T03:04:28;8.48;;;4.13;;
50393;SDS011;36308;46.312;25.288;2023-05-24T03:06:53;8.15;;;5.68;;
50393;SDS011;36308;46.312;25.288;2023-05-24T03:09:19;10.75;;;5.55;;
50393;SDS011;36308;46.312;25.288;2023-05-24T03:11:44;8.55;;;4.82;;
50393;SDS011;36308;46.312;25.288;2023-05-24T03:14:10;7.00;;;4.38;;
50393;SDS011;36308;46.312;25.288;2023-05-24T03:16:36;6.50;;;4.65;;
50393;SDS011;36308;46.312;25.288;2023-05-24T03:19:02;8.65;;;5.38;;
50393;SDS011;36308;46.312;25.288;2023-05-24T03:21:28;7.53;;;4.80;;
50393;SDS011;36308;46.312;25.288;2023-05-24T03:23:53;6.47;;;4.22;;
50393;SDS011;36308;46.312;25.288;2023-05-24T03:26:19;7.68;;;4.60;;
50393;SDS011;36308;46.312;25.288;2023-05-24T03:28:45;7.20;;;4.53;;
50393;SDS011;36308;46.312;25.288;2023-05-24T03:31:11;7.20;;;4.60;;
50393;SDS011;36308;46.312;25.288;2023-05-24T03:33:37;7.60;;;4.97;;
50393;SDS011;36308;46.312;25.288;2023-05-24T03:36:03;7.40;;;4.38;;
50393;SDS011;36308;46.312;25.288;2023-05-24T03:38:29;7.68;;;4.43;;
50393;SDS011;36308;46.312;25.288;2023-05-24T03:40:55;6.93;;;4.93;;
50393;SDS011;36308;46.312;25.288;2023-05-24T03:43:21;7.47;;;4.90;;
50393;SDS011;36308;46.312;25.288;2023-05-24T03:45:46;6.60;;;4.28;;
50393;SDS011;36308;46.312;25.288;2023-05-24T03:48:12;6.63;;;5.00;;
50393;SDS011;36308;46.312;25.288;2023-05-24T03:50:38;6.80;;;4.63;;
50393;SDS011;36308;46.312;25.288;2023-05-24T03:53:03;7.00;;;4.78;;
50393;SDS011;36308;46.312;25.288;2023-05-24T03:55:29;9.57;;;6.85;;
50393;SDS011;36308;46.312;25.288;2023-05-24T03:57:54;8.75;;;5.47;;
50393;SDS011;36308;46.312;25.288;2023-05-24T04:00:20;9.05;;;6.13;;
50393;SDS011;36308;46.312;25.288;2023-05-24T04:02:46;14.88;;;6.85;;
50393;SDS011;36308;46.312;25.288;2023-05-24T04:05:12;12.55;;;6.75;;
50393;SDS011;36308;46.312;25.288;2023-05-24T04:07:37;10.40;;;6.57;;
50393;SDS011;36308;46.312;25.288;2023-05-24T04:10:04;12.48;;;7.70;;
50393;SDS011;36308;46.312;25.288;2023-05-24T04:12:31;14.00;;;8.10;;
50393;SDS011;36308;46.312;25.288;2023-05-24T04:14:57;11.45;;;7.28;;
50393;SDS011;36308;46.312;25.288;2023-05-24T04:17:23;14.70;;;10.95;;
50393;SDS011;36308;46.312;25.288;2023-05-24T04:19:52;11.70;;;8.85;;
50393;SDS011;36308;46.312;25.288;2023-05-24T04:22:18;11.25;;;6.60;;
50393;SDS011;36308;46.312;25.288;2023-05-24T04:24:44;12.23;;;6.35;;
50393;SDS011;36308;46.312;25.288;2023-05-24T04:27:10;11.48;;;5.90;;
50393;SDS011;36308;46.312;25.288;2023-05-24T04:29:35;9.93;;;7.50;;
50393;SDS011;36308;46.312;25.288;2023-05-24T04:32:03;11.48;;;6.93;;
50393;SDS011;36308;46.312;25.288;2023-05-24T04:34:28;12.80;;;6.65;;
50393;SDS011;36308;46.312;25.288;2023-05-24T04:36:57;9.52;;;6.32;;
50393;SDS011;36308;46.312;25.288;2023-05-24T04:39:26;8.90;;;6.90;;
50393;SDS011;36308;46.312;25.288;2023-05-24T04:41:53;12.20;;;6.95;;
50393;SDS011;36308;46.312;25.288;2023-05-24T04:44:20;13.07;;;6.85;;
50393;SDS011;36308;46.312;25.288;2023-05-24T04:46:45;13.95;;;7.10;;
50393;SDS011;36308;46.312;25.288;2023-05-24T04:49:11;12.02;;;6.97;;
50393;SDS011;36308;46.312;25.288;2023-05-24T04:51:37;10.32;;;6.80;;
50393;SDS011;36308;46.312;25.288;2023-05-24T04:54:05;18.35;;;7.13;;
50393;SDS011;36308;46.312;25.288;2023-05-24T04:56:39;14.13;;;8.57;;
50393;SDS011;36308;46.312;25.288;2023-05-24T04:59:05;15.27;;;8.73;;
50393;SDS011;36308;46.312;25.288;2023-05-24T05:01:31;13.70;;;8.75;;
50393;SDS011;36308;46.312;25.288;2023-05-24T05:03:57;19.02;;;8.30;;
50393;SDS011;36308;46.312;25.288;2023-05-24T05:06:23;12.15;;;7.75;;
50393;SDS011;36308;46.312;25.288;2023-05-24T05:08:49;11.90;;;7.40;;
50393;SDS011;36308;46.312;25.288;2023-05-24T05:11:15;11.70;;;7.55;;
50393;SDS011;36308;46.312;25.288;2023-05-24T05:13:42;12.65;;;7.53;;
50393;SDS011;36308;46.312;25.288;2023-05-24T05:16:08;12.57;;;8.15;;
50393;SDS011;36308;46.312;25.288;2023-05-24T05:18:33;14.57;;;8.07;;
50393;SDS011;36308;46.312;25.288;2023-05-24T05:20:59;20.15;;;12.13;;
50393;SDS011;36308;46.312;25.288;2023-05-24T05:23:25;14.73;;;9.05;;
50393;SDS011;36308;46.312;25.288;2023-05-24T05:25:50;18.77;;;10.18;;
50393;SDS011;36308;46.312;25.288;2023-05-24T05:28:16;14.05;;;10.82;;
50393;SDS011;36308;46.312;25.288;2023-05-24T05:30:41;15.15;;;10.73;;
50393;SDS011;36308;46.312;25.288;2023-05-24T05:33:07;15.80;;;11.02;;
50393;SDS011;36308;46.312;25.288;2023-05-24T05:35:32;15.77;;;9.98;;
50393;SDS011;36308;46.312;25.288;2023-05-24T05:37:58;19.90;;;9.98;;
50393;SDS011;36308;46.312;25.288;2023-05-24T05:40:23;12.25;;;5.72;;
50393;SDS011;36308;46.312;25.288;2023-05-24T05:42:49;6.75;;;4.20;;
50393;SDS011;36308;46.312;25.288;2023-05-24T05:45:15;13.82;;;5.22;;
50393;SDS011;36308;46.312;25.288;2023-05-24T05:47:40;11.30;;;6.25;;
50393;SDS011;36308;46.312;25.288;2023-05-24T05:50:07;11.75;;;6.15;;
50393;SDS011;36308;46.312;25.288;2023-05-24T05:52:33;12.45;;;6.43;;
50393;SDS011;36308;46.312;25.288;2023-05-24T05:54:58;10.85;;;6.63;;
50393;SDS011;36308;46.312;25.288;2023-05-24T05:57:24;10.32;;;5.95;;
50393;SDS011;36308;46.312;25.288;2023-05-24T05:59:50;14.45;;;7.28;;
50393;SDS011;36308;46.312;25.288;2023-05-24T06:02:15;19.83;;;7.47;;
50393;SDS011;36308;46.312;25.288;2023-05-24T06:04:43;13.05;;;6.90;;
50393;SDS011;36308;46.312;25.288;2023-05-24T06:07:09;9.65;;;6.25;;
50393;SDS011;36308;46.312;25.288;2023-05-24T06:09:34;16.77;;;7.25;;
50393;SDS011;36308;46.312;25.288;2023-05-24T06:12:00;16.02;;;7.07;;
50393;SDS011;36308;46.312;25.288;2023-05-24T06:14:25;14.45;;;7.43;;
50393;SDS011;36308;46.312;25.288;2023-05-24T06:16:51;11.75;;;6.43;;
50393;SDS011;36308;46.312;25.288;2023-05-24T06:19:18;13.55;;;6.22;;
50393;SDS011;36308;46.312;25.288;2023-05-24T06:21:45;13.57;;;6.10;;
50393;SDS011;36308;46.312;25.288;2023-05-24T06:24:15;11.57;;;6.75;;
50393;SDS011;36308;46.312;25.288;2023-05-24T06:26:49;11.82;;;6.45;;
50393;SDS011;36308;46.312;25.288;2023-05-24T06:29:16;12.43;;;6.20;;
50393;SDS011;36308;46.312;25.288;2023-05-24T06:31:46;8.82;;;5.53;;
50393;SDS011;36308;46.312;25.288;2023-05-24T06:34:12;10.25;;;6.07;;
50393;SDS011;36308;46.312;25.288;2023-05-24T06:36:41;10.35;;;5.72;;
50393;SDS011;36308;46.312;25.288;2023-05-24T06:39:10;13.25;;;6.35;;
50393;SDS011;36308;46.312;25.288;2023-05-24T06:41:37;11.25;;;5.47;;
50393;SDS011;36308;46.312;25.288;2023-05-24T06:44:03;10.07;;;5.63;;
50393;SDS011;36308;46.312;25.288;2023-05-24T06:46:29;8.82;;;5.47;;
50393;SDS011;36308;46.312;25.288;2023-05-24T06:48:54;10.77;;;5.60;;
50393;SDS011;36308;46.312;25.288;2023-05-24T06:51:20;11.00;;;6.13;;
50393;SDS011;36308;46.312;25.288;2023-05-24T06:53:46;8.70;;;4.93;;
50393;SDS011;36308;46.312;25.288;2023-05-24T06:56:11;7.30;;;5.47;;
50393;SDS011;36308;46.312;25.288;2023-05-24T06:58:37;14.85;;;11.75;;
50393;SDS011;36308;46.312;25.288;2023-05-24T07:01:02;20.00;;;13.60;;
50393;SDS011;36308;46.312;25.288;2023-05-24T07:03:31;9.30;;;5.90;;
50393;SDS011;36308;46.312;25.288;2023-05-24T07:05:57;9.43;;;5.95;;
50393;SDS011;36308;46.312;25.288;2023-05-24T07:08:25;11.25;;;6.45;;
50393;SDS011;36308;46.312;25.288;2023-05-24T07:10:52;14.13;;;5.90;;
50393;SDS011;36308;46.312;25.288;2023-05-24T07:13:18;8.48;;;5.47;;
50393;SDS011;36308;46.312;25.288;2023-05-24T07:15:45;10.75;;;5.45;;
50393;SDS011;36308;46.312;25.288;2023-05-24T07:18:13;6.85;;;5.00;;
50393;SDS011;36308;46.312;25.288;2023-05-24T07:20:39;30.63;;;6.88;;
50393;SDS011;36308;46.312;25.288;2023-05-24T07:23:05;7.63;;;4.72;;
50393;SDS011;36308;46.312;25.288;2023-05-24T07:25:31;9.32;;;5.30;;
50393;SDS011;36308;46.312;25.288;2023-05-24T07:27:57;8.20;;;4.68;;
50393;SDS011;36308;46.312;25.288;2023-05-24T07:30:24;9.93;;;5.28;;
50393;SDS011;36308;46.312;25.288;2023-05-24T07:32:51;8.10;;;5.00;;
50393;SDS011;36308;46.312;25.288;2023-05-24T07:35:17;9.18;;;4.70;;
50393;SDS011;36308;46.312;25.288;2023-05-24T07:37:42;7.63;;;5.13;;
50393;SDS011;36308;46.312;25.288;2023-05-24T07:40:08;8.43;;;4.53;;
50393;SDS011;36308;46.312;25.288;2023-05-24T07:42:38;7.00;;;4.88;;
50393;SDS011;36308;46.312;25.288;2023-05-24T07:45:05;10.55;;;5.53;;
50393;SDS011;36308;46.312;25.288;2023-05-24T07:47:33;5.95;;;4.53;;
50393;SDS011;36308;46.312;25.288;2023-05-24T07:49:58;5.30;;;4.60;;
50393;SDS011;36308;46.312;25.288;2023-05-24T07:52:24;5.55;;;4.40;;
50393;SDS011;36308;46.312;25.288;2023-05-24T07:54:50;8.55;;;5.38;;
50393;SDS011;36308;46.312;25.288;2023-05-24T07:57:17;7.50;;;4.63;;
50393;SDS011;36308;46.312;25.288;2023-05-24T07:59:43;8.55;;;4.32;;
50393;SDS011;36308;46.312;25.288;2023-05-24T08:02:09;7.00;;;4.20;;
50393;SDS011;36308;46.312;25.288;2023-05-24T08:04:35;6.88;;;4.47;;
50393;SDS011;36308;46.312;25.288;2023-05-24T08:07:02;4.75;;;4.25;;
50393;SDS011;36308;46.312;25.288;2023-05-24T08:09:29;7.55;;;4.50;;
50393;SDS011;36308;46.312;25.288;2023-05-24T08:11:59;7.45;;;4.28;;
50393;SDS011;36308;46.312;25.288;2023-05-24T08:14:26;6.32;;;4.00;;
50393;SDS011;36308;46.312;25.288;2023-05-24T08:16:51;5.07;;;3.80;;
50393;SDS011;36308;46.312;25.288;2023-05-24T08:19:17;8.50;;;4.00;;
50393;SDS011;36308;46.312;25.288;2023-05-24T08:21:44;4.95;;;3.67;;
50393;SDS011;36308;46.312;25.288;2023-05-24T08:24:09;5.32;;;3.55;;
50393;SDS011;36308;46.312;25.288;2023-05-24T08:26:35;5.22;;;4.00;;
50393;SDS011;36308;46.312;25.288;2023-05-24T08:29:01;6.47;;;4.10;;
50393;SDS011;36308;46.312;25.288;2023-05-24T08:31:27;7.70;;;4.20;;
50393;SDS011;36308;46.312;25.288;2023-05-24T08:33:53;7.32;;;4.00;;
50393;SDS011;36308;46.312;25.288;2023-05-24T08:36:20;7.30;;;4.05;;
50393;SDS011;36308;46.312;25.288;2023-05-24T08:38:46;7.90;;;4.40;;
50393;SDS011;36308;46.312;25.288;2023-05-24T08:41:11;6.88;;;4.10;;
50393;SDS011;36308;46.312;25.288;2023-05-24T08:43:37;7.88;;;3.83;;
50393;SDS011;36308;46.312;25.288;2023-05-24T08:46:04;10.85;;;3.88;;
50393;SDS011;36308;46.312;25.288;2023-05-24T08:48:29;7.47;;;3.42;;
50393;SDS011;36308;46.312;25.288;2023-05-24T08:50:56;5.55;;;3.75;;
50393;SDS011;36308;46.312;25.288;2023-05-24T08:53:22;5.55;;;3.40;;
50393;SDS011;36308;46.312;25.288;2023-05-24T08:55:48;5.35;;;3.40;;
50393;SDS011;36308;46.312;25.288;2023-05-24T08:58:17;4.88;;;3.50;;
50393;SDS011;36308;46.312;25.288;2023-05-24T09:00:43;5.15;;;3.53;;
50393;SDS011;36308;46.312;25.288;2023-05-24T09:03:09;8.38;;;3.45;;
50393;SDS011;36308;46.312;25.288;2023-05-24T09:05:36;6.63;;;3.25;;
50393;SDS011;36308;46.312;25.288;2023-05-24T09:08:02;4.57;;;3.33;;
50393;SDS011;36308;46.312;25.288;2023-05-24T09:10:28;6.20;;;3.30;;
50393;SDS011;36308;46.312;25.288;2023-05-24T09:12:57;7.90;;;3.47;;
50393;SDS011;36308;46.312;25.288;2023-05-24T09:15:26;5.15;;;3.40;;
50393;SDS011;36308;46.312;25.288;2023-05-24T09:17:51;5.35;;;3.35;;
50393;SDS011;36308;46.312;25.288;2023-05-24T09:20:17;6.45;;;3.42;;
50393;SDS011;36308;46.312;25.288;2023-05-24T09:22:44;7.00;;;3.15;;
50393;SDS011;36308;46.312;25.288;2023-05-24T09:25:16;4.65;;;3.35;;
50393;SDS011;36308;46.312;25.288;2023-05-24T09:27:49;6.72;;;3.20;;
50393;SDS011;36308;46.312;25.288;2023-05-24T09:30:16;6.75;;;3.60;;
50393;SDS011;36308;46.312;25.288;2023-05-24T09:32:52;6.50;;;3.83;;
50393;SDS011;36308;46.312;25.288;2023-05-24T09:35:20;7.55;;;3.42;;
50393;SDS011;36308;46.312;25.288;2023-05-24T09:37:45;3.22;;;2.90;;
50393;SDS011;36308;46.312;25.288;2023-05-24T09:40:17;5.00;;;2.85;;
50393;SDS011;36308;46.312;25.288;2023-05-24T09:42:44;7.60;;;3.08;;
50393;SDS011;36308;46.312;25.288;2023-05-24T09:45:10;4.97;;;3.22;;
50393;SDS011;36308;46.312;25.288;2023-05-24T09:47:37;5.10;;;3.00;;
50393;SDS011;36308;46.312;25.288;2023-05-24T09:50:05;4.63;;;3.30;;
50393;SDS011;36308;46.312;25.288;2023-05-24T09:52:37;4.47;;;3.08;;
50393;SDS011;36308;46.312;25.288;2023-05-24T09:57:39;5.68;;;3.15;;
50393;SDS011;36308;46.312;25.288;2023-05-24T10:00:08;7.18;;;3.30;;
50393;SDS011;36308;46.312;25.288;2023-05-24T10:02:44;4.43;;;3.15;;
50393;SDS011;36308;46.312;25.288;2023-05-24T10:05:11;5.38;;;3.35;;
50393;SDS011;36308;46.312;25.288;2023-05-24T10:07:37;3.53;;;3.05;;
50393;SDS011;36308;46.312;25.288;2023-05-24T10:10:06;8.27;;;3.83;;
50393;SDS011;36308;46.312;25.288;2023-05-24T10:12:34;5.78;;;3.42;;
50393;SDS011;36308;46.312;25.288;2023-05-24T10:15:01;5.90;;;3.13;;
50393;SDS011;36308;46.312;25.288;2023-05-24T10:17:27;3.53;;;2.97;;
50393;SDS011;36308;46.312;25.288;2023-05-24T10:19:53;4.22;;;3.10;;
50393;SDS011;36308;46.312;25.288;2023-05-24T10:22:19;6.20;;;3.33;;
50393;SDS011;36308;46.312;25.288;2023-05-24T10:24:49;5.38;;;3.38;;
50393;SDS011;36308;46.312;25.288;2023-05-24T10:27:24;5.47;;;3.22;;
50393;SDS011;36308;46.312;25.288;2023-05-24T10:33:06;4.50;;;3.00;;
50393;SDS011;36308;46.312;25.288;2023-05-24T10:35:33;5.35;;;3.03;;
50393;SDS011;36308;46.312;25.288;2023-05-24T10:38:05;5.70;;;3.40;;
50393;SDS011;36308;46.312;25.288;2023-05-24T10:40:32;5.28;;;3.17;;
50393;SDS011;36308;46.312;25.288;2023-05-24T10:42:58;5.82;;;3.40;;
50393;SDS011;36308;46.312;25.288;2023-05-24T10:47:49;5.82;;;3.88;;
50393;SDS011;36308;46.312;25.288;2023-05-24T10:50:19;4.88;;;3.90;;
50393;SDS011;36308;46.312;25.288;2023-05-24T10:52:48;5.72;;;3.30;;
50393;SDS011;36308;46.312;25.288;2023-05-24T10:55:14;6.35;;;3.53;;
50393;SDS011;36308;46.312;25.288;2023-05-24T10:57:40;6.95;;;3.17;;
50393;SDS011;36308;46.312;25.288;2023-05-24T11:05:16;8.82;;;3.38;;
50393;SDS011;36308;46.312;25.288;2023-05-24T11:07:42;6.07;;;3.40;;
50393;SDS011;36308;46.312;25.288;2023-05-24T11:10:17;5.70;;;3.30;;
50393;SDS011;36308;46.312;25.288;2023-05-24T11:13:06;4.75;;;3.05;;
50393;SDS011;36308;46.312;25.288;2023-05-24T11:15:33;5.47;;;3.50;;
50393;SDS011;36308;46.312;25.288;2023-05-24T11:20:34;7.40;;;4.28;;
50393;SDS011;36308;46.312;25.288;2023-05-24T11:23:03;5.28;;;3.25;;
50393;SDS011;36308;46.312;25.288;2023-05-24T11:25:36;5.20;;;2.95;;
50393;SDS011;36308;46.312;25.288;2023-05-24T11:28:06;5.15;;;2.88;;
50393;SDS011;36308;46.312;25.288;2023-05-24T11:30:38;6.18;;;3.70;;
50393;SDS011;36308;46.312;25.288;2023-05-24T11:33:17;4.63;;;3.58;;
50393;SDS011;36308;46.312;25.288;2023-05-24T11:35:47;4.78;;;3.35;;
50393;SDS011;36308;46.312;25.288;2023-05-24T11:38:16;5.97;;;3.30;;
50393;SDS011;36308;46.312;25.288;2023-05-24T11:40:43;5.90;;;3.53;;
50393;SDS011;36308;46.312;25.288;2023-05-24T11:43:17;5.70;;;3.20;;
50393;SDS011;36308;46.312;25.288;2023-05-24T11:45:44;4.18;;;3.13;;
50393;SDS011;36308;46.312;25.288;2023-05-24T11:48:12;5.72;;;3.40;;
50393;SDS011;36308;46.312;25.288;2023-05-24T11:50:43;9.80;;;3.75;;
50393;SDS011;36308;46.312;25.288;2023-05-24T11:53:10;8.90;;;3.85;;
50393;SDS011;36308;46.312;25.288;2023-05-24T11:55:37;4.35;;;3.15;;
50393;SDS011;36308;46.312;25.288;2023-05-24T11:58:28;6.43;;;3.35;;
50393;SDS011;36308;46.312;25.288;2023-05-24T12:00:57;4.73;;;3.13;;
50393;SDS011;36308;46.312;25.288;2023-05-24T12:03:23;5.75;;;3.20;;
50393;SDS011;36308;46.312;25.288;2023-05-24T12:05:49;4.85;;;3.30;;
50393;SDS011;36308;46.312;25.288;2023-05-24T12:08:15;6.78;;;3.75;;
50393;SDS011;36308;46.312;25.288;2023-05-24T12:10:41;6.93;;;3.22;;
50393;SDS011;36308;46.312;25.288;2023-05-24T12:13:20;5.25;;;2.83;;
50393;SDS011;36308;46.312;25.288;2023-05-24T12:15:53;4.53;;;3.55;;
50393;SDS011;36308;46.312;25.288;2023-05-24T12:18:20;4.65;;;3.35;;
50393;SDS011;36308;46.312;25.288;2023-05-24T12:20:49;4.50;;;3.17;;
50393;SDS011;36308;46.312;25.288;2023-05-24T12:23:18;6.43;;;3.10;;
50393;SDS011;36308;46.312;25.288;2023-05-24T12:25:45;3.70;;;3.30;;
50393;SDS011;36308;46.312;25.288;2023-05-24T12:28:11;7.30;;;3.40;;
50393;SDS011;36308;46.312;25.288;2023-05-24T12:30:37;4.20;;;3.00;;
50393;SDS011;36308;46.312;25.288;2023-05-24T12:33:07;4.00;;;3.22;;
50393;SDS011;36308;46.312;25.288;2023-05-24T12:35:34;7.57;;;3.28;;
50393;SDS011;36308;46.312;25.288;2023-05-24T12:37:59;6.68;;;3.40;;
50393;SDS011;36308;46.312;25.288;2023-05-24T12:40:25;4.65;;;3.45;;
50393;SDS011;36308;46.312;25.288;2023-05-24T12:45:18;7.38;;;3.38;;
50393;SDS011;36308;46.312;25.288;2023-05-24T12:47:51;3.85;;;2.83;;
50393;SDS011;36308;46.312;25.288;2023-05-24T12:50:18;4.43;;;3.10;;
50393;SDS011;36308;46.312;25.288;2023-05-24T12:52:45;4.10;;;2.88;;
50393;SDS011;36308;46.312;25.288;2023-05-24T12:55:14;5.63;;;3.13;;
50393;SDS011;36308;46.312;25.288;2023-05-24T12:57:40;7.22;;;3.20;;
50393;SDS011;36308;46.312;25.288;2023-05-24T13:00:09;5.80;;;3.22;;
50393;SDS011;36308;46.312;25.288;2023-05-24T13:02:39;7.35;;;3.20;;
50393;SDS011;36308;46.312;25.288;2023-05-24T13:05:05;6.32;;;3.55;;
50393;SDS011;36308;46.312;25.288;2023-05-24T13:07:31;4.32;;;3.42;;
50393;SDS011;36308;46.312;25.288;2023-05-24T13:09:57;5.97;;;3.20;;
50393;SDS011;36308;46.312;25.288;2023-05-24T13:12:24;5.30;;;2.80;;
50393;SDS011;36308;46.312;25.288;2023-05-24T13:14:51;12.05;;;3.38;;
50393;SDS011;36308;46.312;25.288;2023-05-24T13:17:17;6.85;;;2.80;;
50393;SDS011;36308;46.312;25.288;2023-05-24T13:19:42;7.10;;;2.67;;
50393;SDS011;36308;46.312;25.288;2023-05-24T13:22:08;7.63;;;3.47;;
50393;SDS011;36308;46.312;25.288;2023-05-24T13:24:34;4.93;;;3.22;;
50393;SDS011;36308;46.312;25.288;2023-05-24T13:27:00;3.95;;;2.90;;
50393;SDS011;36308;46.312;25.288;2023-05-24T13:29:27;5.82;;;2.67;;
50393;SDS011;36308;46.312;25.288;2023-05-24T13:31:52;3.75;;;2.88;;
50393;SDS011;36308;46.312;25.288;2023-05-24T13:34:18;13.85;;;2.88;;
50393;SDS011;36308;46.312;25.288;2023-05-24T13:36:44;5.13;;;3.28;;
50393;SDS011;36308;46.312;25.288;2023-05-24T13:39:10;4.35;;;3.38;;
50393;SDS011;36308;46.312;25.288;2023-05-24T13:41:37;5.47;;;3.30;;
50393;SDS011;36308;46.312;25.288;2023-05-24T13:44:03;6.10;;;2.97;;
50393;SDS011;36308;46.312;25.288;2023-05-24T13:46:28;5.65;;;3.40;;
50393;SDS011;36308;46.312;25.288;2023-05-24T13:48:55;5.68;;;2.92;;
50393;SDS011;36308;46.312;25.288;2023-05-24T13:51:21;4.05;;;2.95;;
50393;SDS011;36308;46.312;25.288;2023-05-24T13:53:47;4.90;;;2.90;;
50393;SDS011;36308;46.312;25.288;2023-05-24T13:56:13;4.05;;;2.75;;
50393;SDS011;36308;46.312;25.288;2023-05-24T13:58:43;5.10;;;2.83;;
50393;SDS011;36308;46.312;25.288;2023-05-24T14:01:08;5.22;;;3.00;;
50393;SDS011;36308;46.312;25.288;2023-05-24T14:03:34;7.32;;;3.20;;
50393;SDS011;36308;46.312;25.288;2023-05-24T14:06:00;4.85;;;3.17;;
50393;SDS011;36308;46.312;25.288;2023-05-24T14:08:26;6.03;;;3.08;;
50393;SDS011;36308;46.312;25.288;2023-05-24T14:10:52;4.35;;;3.00;;
50393;SDS011;36308;46.312;25.288;2023-05-24T14:13:17;4.57;;;3.20;;
50393;SDS011;36308;46.312;25.288;2023-05-24T14:15:43;6.97;;;2.95;;
50393;SDS011;36308;46.312;25.288;2023-05-24T14:18:10;5.25;;;3.30;;
50393;SDS011;36308;46.312;25.288;2023-05-24T14:20:36;5.50;;;3.33;;
50393;SDS011;36308;46.312;25.288;2023-05-24T14:23:02;7.20;;;3.53;;
50393;SDS011;36308;46.312;25.288;2023-05-24T14:25:28;9.82;;;3.92;;
50393;SDS011;36308;46.312;25.288;2023-05-24T14:27:55;11.63;;;4.43;;
50393;SDS011;36308;46.312;25.288;2023-05-24T14:30:20;6.75;;;3.30;;
50393;SDS011;36308;46.312;25.288;2023-05-24T14:32:46;4.68;;;3.38;;
50393;SDS011;36308;46.312;25.288;2023-05-24T14:35:11;5.13;;;3.28;;
50393;SDS011;36308;46.312;25.288;2023-05-24T14:37:37;7.80;;;3.28;;
50393;SDS011;36308;46.312;25.288;2023-05-24T14:40:04;7.95;;;3.60;;
50393;SDS011;36308;46.312;25.288;2023-05-24T14:42:30;5.18;;;3.45;;
50393;SDS011;36308;46.312;25.288;2023-05-24T14:44:56;6.22;;;3.28;;
50393;SDS011;36308;46.312;25.288;2023-05-24T14:47:22;6.85;;;3.38;;
50393;SDS011;36308;46.312;25.288;2023-05-24T14:49:47;6.70;;;3.90;;
50393;SDS011;36308;46.312;25.288;2023-05-24T14:52:13;6.10;;;3.60;;
50393;SDS011;36308;46.312;25.288;2023-05-24T14:54:38;7.53;;;3.40;;
50393;SDS011;36308;46.312;25.288;2023-05-24T14:57:04;7.93;;;3.17;;
50393;SDS011;36308;46.312;25.288;2023-05-24T14:59:31;7.95;;;3.58;;
50393;SDS011;36308;46.312;25.288;2023-05-24T15:01:57;5.68;;;3.60;;